Tuesday, October 16, 2018, 10:52 AM GMT
Back to Local

CYGK, Kingston, Ont.

Location: , , Canada Lat: 44.217
Local Time: 10:52 AM GMT (10:52 GMT) Lon: -76.6
Time Zone: GMT Elev: 305 ft

Show me the last for .
Show Decoded

2018-10-16 10:00 METAR CYGK 161000Z 27010KT 15SM SKC 04/01 A3007 RMK SLP187 =
2018-10-16 03:00 METAR CYGK 160300Z 26015G22KT 15SM FEW027 05/01 A2996 RMK SC2 LAST STFD OBS /
                 NEXT 161000 UTC SLP149 =
2018-10-16 02:00 METAR CYGK 160200Z 26019G28KT 15SM FEW025 BKN052 06/01 A2991 RMK SC1SC5 SLP132 =
2018-10-16 01:51 METAR CYGK 160151Z 27020G33KT 15SM FEW028 BKN050 06/02 A2990 RMK SC2SC5 PRESRR
                 SLP129 =
2018-10-16 01:23 METAR CYGK 160123Z 27019G28KT 15SM -SHRA BKN028 08/03 A2987 RMK SC7 CVCTV CLD
                 EMBD PRESRR SLP119 =
2018-10-16 01:00 METAR CYGK 160100Z 26021G30KT 15SM SCT043 08/02 A2985 RMK SC3 SLP111 =
2018-10-16 00:00 METAR CYGK 160000Z 28021G28KT 15SM SCT040 09/04 A2981 RMK SC4 SLP098 =
2018-10-15 23:00 METAR CYGK 152300Z 27016G24KT 15SM BKN025 BKN110 10/08 A2977 RMK SC5AC2 PRESRR
                 SLP084 =
2018-10-15 22:00 METAR CYGK 152200Z 25019G28KT 15SM FEW017 BKN023 BKN110 13/10 A2971 RMK
                 CF1SC4AC2 SLP065 DENSITY ALT 400FT =
2018-10-15 21:00 METAR CYGK 152100Z 25015G27KT 60SM FEW012 SCT018 OVC092 13/11 A2970 RMK
                 CF2SC2AC4 SLP060 DENSITY ALT 400FT =
2018-10-15 20:56 METAR CYGK 152056Z 25017G28KT 15SM FEW012 SCT055 OVC097 13/11 A2970 RMK
                 CF2SC2AC4 SLP059 DENSITY ALT 400FT =
2018-10-15 20:37 METAR CYGK 152037Z 25021G32KT 12SM FEW016 SCT057 OVC091 13/11 A2970 RMK
                 CU1SC2AC5 SLP060 DENSITY ALT 400FT =
2018-10-15 20:23 METAR CYGK 152023Z 25021G31KT 15SM FEW018 SCT050 OVC091 13/11 A2970 RMK
                 SC2SC2AC4 SLP059 DENSITY ALT 400FT =
2018-10-15 20:00 METAR CYGK 152000Z 25016G24KT 15SM -RA FEW008 SCT048 OVC100 14/12 A2969 RMK
                 SF1SC2AC5 SLP056 DENSITY ALT 500FT =
2018-10-15 19:28 METAR CYGK 151928Z 24019G31KT 8SM -RA SCT008 OVC045 13/13 A2969 RMK SF3SC5
                 SLP056 DENSITY ALT 500FT =
2018-10-15 19:00 METAR CYGK 151900Z 21015G23KT 3SM -RA BR OVC007 14/14 A2969 RMK SF8 SLP055
                 DENSITY ALT 500FT =
2018-10-15 18:42 METAR CYGK 151842Z 19019G27KT 2SM -RA BR OVC010 14/14 A2969 RMK SF8 SLP056
                 DENSITY ALT 500FT =
2018-10-15 18:17 METAR CYGK 151817Z 20015G21KT 10SM -RA BKN008 OVC016 13/13 A2970 RMK SF5SC3
                 SLP060 DENSITY ALT 500FT =
2018-10-15 18:00 METAR CYGK 151800Z 20018G24KT 5SM -RA BR OVC006 13/13 A2971 RMK SF8 SLP062
                 DENSITY ALT 400FT =
2018-10-15 17:00 METAR CYGK 151700Z 20014G22KT 3SM -RA BR BKN006 OVC010 12/12 A2975 RMK SF5SF3
                 SLP078 =
2018-10-15 16:55 METAR CYGK 151655Z 20017G22KT 2SM -RA BR BKN006 OVC009 12/12 A2976 RMK SF5SF3
                 SLP079 =
2018-10-15 16:30 METAR CYGK 151630Z 18016G24KT 6SM -RA BR OVC007 12/12 A2977 RMK SF8 CIG RAG
                 SLP085 =
2018-10-15 16:00 METAR CYGK 151600Z 19017KT 2 1/2SM -RA BR OVC007 12/11 A2979 RMK SF8 CIG RAG
                 SLP092 =
2018-10-15 15:00 METAR CYGK 151500Z 18015G21KT 2 1/4SM -RA BR BKN005 OVC008 11/11 A2984 RMK
                 SF6SF2 SLP107 =
2018-10-15 14:54 METAR CYGK 151454Z 18016KT 2 1/2SM -RA BR OVC005 11/11 A2984 RMK SF8 PRESFR
                 SLP108 =
2018-10-15 14:26 METAR CYGK 151426Z 17014G20KT 10SM OVC009 11/10 A2986 RMK SC8 CIG RAG SLP114 =
2018-10-15 14:00 METAR CYGK 151400Z 18014G20KT 15SM OVC011 11/10 A2987 RMK SC8 SLP118 =
2018-10-15 13:00 METAR CYGK 151300Z 17012G19KT 15SM OVC014 11/09 A2991 RMK SC8 SLP133 =
2018-10-15 12:00 METAR CYGK 151200Z 17013KT 15SM -RA BKN015 OVC084 11/09 A2993 RMK SC5AC3 SLP140
                 =
2018-10-15 11:23 METAR CYGK 151123Z 17014KT 15SM -RA SCT018 OVC088 11/09 A2994 RMK SC4AC4 PRESFR
                 SLP142 =
2018-10-15 11:00 METAR CYGK 151100Z 16012KT 15SM FEW018 OVC096 11/09 A2995 RMK SC2AC6 SLP146 =

Support USWX by starting your Amazon purchase here.